sensor_id;sensor_type;location;lat;lon;timestamp;P1;durP1;ratioP1;P2;durP2;ratioP2
51634;SDS011;37712;52.980;6.216;2022-07-04T00:00:05;8.20;;;5.13;;
51634;SDS011;37712;52.980;6.216;2022-07-04T00:02:33;7.50;;;5.68;;
51634;SDS011;37712;52.980;6.216;2022-07-04T00:05:00;6.18;;;5.43;;
51634;SDS011;37712;52.980;6.216;2022-07-04T00:07:26;7.03;;;5.95;;
51634;SDS011;37712;52.980;6.216;2022-07-04T00:09:52;7.30;;;5.85;;
51634;SDS011;37712;52.980;6.216;2022-07-04T00:12:17;6.20;;;5.35;;
51634;SDS011;37712;52.980;6.216;2022-07-04T00:14:49;6.88;;;5.47;;
51634;SDS011;37712;52.980;6.216;2022-07-04T00:17:14;8.15;;;5.90;;
51634;SDS011;37712;52.980;6.216;2022-07-04T00:19:40;5.75;;;5.10;;
51634;SDS011;37712;52.980;6.216;2022-07-04T00:22:06;6.00;;;5.00;;
51634;SDS011;37712;52.980;6.216;2022-07-04T00:24:31;5.90;;;5.35;;
51634;SDS011;37712;52.980;6.216;2022-07-04T00:26:57;7.68;;;5.80;;
51634;SDS011;37712;52.980;6.216;2022-07-04T00:29:23;6.00;;;5.35;;
51634;SDS011;37712;52.980;6.216;2022-07-04T00:31:48;7.13;;;6.25;;
51634;SDS011;37712;52.980;6.216;2022-07-04T00:34:14;8.77;;;6.35;;
51634;SDS011;37712;52.980;6.216;2022-07-04T00:36:40;8.23;;;6.13;;
51634;SDS011;37712;52.980;6.216;2022-07-04T00:39:05;9.80;;;6.22;;
51634;SDS011;37712;52.980;6.216;2022-07-04T00:41:31;10.20;;;6.55;;
51634;SDS011;37712;52.980;6.216;2022-07-04T00:44:00;6.82;;;5.90;;
51634;SDS011;37712;52.980;6.216;2022-07-04T00:46:30;6.85;;;5.93;;
51634;SDS011;37712;52.980;6.216;2022-07-04T00:48:57;7.97;;;6.82;;
51634;SDS011;37712;52.980;6.216;2022-07-04T00:51:23;9.13;;;6.40;;
51634;SDS011;37712;52.980;6.216;2022-07-04T00:53:50;9.57;;;6.63;;
51634;SDS011;37712;52.980;6.216;2022-07-04T00:56:17;8.02;;;6.85;;
51634;SDS011;37712;52.980;6.216;2022-07-04T00:58:43;6.93;;;6.22;;
51634;SDS011;37712;52.980;6.216;2022-07-04T01:01:08;9.00;;;6.35;;
51634;SDS011;37712;52.980;6.216;2022-07-04T01:03:34;8.85;;;6.05;;
51634;SDS011;37712;52.980;6.216;2022-07-04T01:06:00;11.10;;;7.10;;
51634;SDS011;37712;52.980;6.216;2022-07-04T01:08:26;7.00;;;5.90;;
51634;SDS011;37712;52.980;6.216;2022-07-04T01:10:51;7.15;;;5.53;;
51634;SDS011;37712;52.980;6.216;2022-07-04T01:13:21;6.80;;;6.07;;
51634;SDS011;37712;52.980;6.216;2022-07-04T01:15:47;6.78;;;6.07;;
51634;SDS011;37712;52.980;6.216;2022-07-04T01:18:13;7.90;;;6.30;;
51634;SDS011;37712;52.980;6.216;2022-07-04T01:20:39;8.35;;;6.25;;
51634;SDS011;37712;52.980;6.216;2022-07-04T01:23:05;8.23;;;6.15;;
51634;SDS011;37712;52.980;6.216;2022-07-04T01:25:31;7.15;;;5.82;;
51634;SDS011;37712;52.980;6.216;2022-07-04T01:27:58;6.90;;;6.30;;
51634;SDS011;37712;52.980;6.216;2022-07-04T01:30:24;7.07;;;5.60;;
51634;SDS011;37712;52.980;6.216;2022-07-04T01:32:50;7.15;;;6.30;;
51634;SDS011;37712;52.980;6.216;2022-07-04T01:35:16;6.85;;;6.07;;
51634;SDS011;37712;52.980;6.216;2022-07-04T01:37:42;6.57;;;5.88;;
51634;SDS011;37712;52.980;6.216;2022-07-04T01:40:07;8.02;;;6.40;;
51634;SDS011;37712;52.980;6.216;2022-07-04T01:42:34;6.70;;;5.80;;
51634;SDS011;37712;52.980;6.216;2022-07-04T01:44:59;6.97;;;6.05;;
51634;SDS011;37712;52.980;6.216;2022-07-04T01:47:25;6.57;;;5.68;;
51634;SDS011;37712;52.980;6.216;2022-07-04T01:49:51;9.63;;;6.03;;
51634;SDS011;37712;52.980;6.216;2022-07-04T01:52:17;7.72;;;5.60;;
51634;SDS011;37712;52.980;6.216;2022-07-04T01:54:43;7.72;;;5.60;;
51634;SDS011;37712;52.980;6.216;2022-07-04T01:57:08;8.68;;;5.85;;
51634;SDS011;37712;52.980;6.216;2022-07-04T01:59:34;9.10;;;6.80;;
51634;SDS011;37712;52.980;6.216;2022-07-04T02:02:18;8.27;;;6.22;;
51634;SDS011;37712;52.980;6.216;2022-07-04T02:04:44;8.98;;;6.15;;
51634;SDS011;37712;52.980;6.216;2022-07-04T02:07:09;8.32;;;6.88;;
51634;SDS011;37712;52.980;6.216;2022-07-04T02:09:41;7.55;;;6.57;;
51634;SDS011;37712;52.980;6.216;2022-07-04T02:12:06;7.50;;;6.38;;
51634;SDS011;37712;52.980;6.216;2022-07-04T02:14:51;7.43;;;6.45;;
51634;SDS011;37712;52.980;6.216;2022-07-04T02:17:17;8.05;;;6.30;;
51634;SDS011;37712;52.980;6.216;2022-07-04T02:19:43;8.20;;;6.40;;
51634;SDS011;37712;52.980;6.216;2022-07-04T02:22:09;8.63;;;6.13;;
51634;SDS011;37712;52.980;6.216;2022-07-04T02:24:35;8.90;;;6.60;;
51634;SDS011;37712;52.980;6.216;2022-07-04T02:27:00;7.05;;;5.97;;
51634;SDS011;37712;52.980;6.216;2022-07-04T02:29:26;7.22;;;6.13;;
51634;SDS011;37712;52.980;6.216;2022-07-04T02:31:52;8.27;;;6.20;;
51634;SDS011;37712;52.980;6.216;2022-07-04T02:34:17;7.22;;;6.03;;
51634;SDS011;37712;52.980;6.216;2022-07-04T02:36:43;8.68;;;6.60;;
51634;SDS011;37712;52.980;6.216;2022-07-04T02:39:09;6.97;;;6.03;;
51634;SDS011;37712;52.980;6.216;2022-07-04T02:41:35;7.85;;;6.20;;
51634;SDS011;37712;52.980;6.216;2022-07-04T02:44:01;7.78;;;6.90;;
51634;SDS011;37712;52.980;6.216;2022-07-04T02:46:27;8.43;;;6.10;;
51634;SDS011;37712;52.980;6.216;2022-07-04T02:48:53;7.43;;;6.47;;
51634;SDS011;37712;52.980;6.216;2022-07-04T02:51:19;7.70;;;6.03;;
51634;SDS011;37712;52.980;6.216;2022-07-04T02:53:50;7.30;;;5.90;;
51634;SDS011;37712;52.980;6.216;2022-07-04T02:56:16;9.88;;;6.25;;
51634;SDS011;37712;52.980;6.216;2022-07-04T02:58:41;7.30;;;6.30;;
51634;SDS011;37712;52.980;6.216;2022-07-04T03:01:07;7.55;;;5.97;;
51634;SDS011;37712;52.980;6.216;2022-07-04T03:03:33;9.80;;;5.82;;
51634;SDS011;37712;52.980;6.216;2022-07-04T03:05:59;6.88;;;6.18;;
51634;SDS011;37712;52.980;6.216;2022-07-04T03:08:25;7.40;;;6.35;;
51634;SDS011;37712;52.980;6.216;2022-07-04T03:10:51;7.35;;;5.97;;
51634;SDS011;37712;52.980;6.216;2022-07-04T03:13:18;7.63;;;6.25;;
51634;SDS011;37712;52.980;6.216;2022-07-04T03:15:44;8.25;;;6.28;;
51634;SDS011;37712;52.980;6.216;2022-07-04T03:18:10;8.38;;;6.20;;
51634;SDS011;37712;52.980;6.216;2022-07-04T03:20:36;6.72;;;6.03;;
51634;SDS011;37712;52.980;6.216;2022-07-04T03:23:02;7.28;;;6.32;;
51634;SDS011;37712;52.980;6.216;2022-07-04T03:25:28;7.82;;;6.68;;
51634;SDS011;37712;52.980;6.216;2022-07-04T03:27:54;8.88;;;6.60;;
51634;SDS011;37712;52.980;6.216;2022-07-04T03:30:20;9.20;;;6.22;;
51634;SDS011;37712;52.980;6.216;2022-07-04T03:32:45;6.85;;;6.15;;
51634;SDS011;37712;52.980;6.216;2022-07-04T03:35:11;7.88;;;6.50;;
51634;SDS011;37712;52.980;6.216;2022-07-04T03:37:37;7.07;;;6.32;;
51634;SDS011;37712;52.980;6.216;2022-07-04T03:40:03;8.88;;;5.95;;
51634;SDS011;37712;52.980;6.216;2022-07-04T03:42:29;8.93;;;6.38;;
51634;SDS011;37712;52.980;6.216;2022-07-04T03:44:55;7.97;;;6.50;;
51634;SDS011;37712;52.980;6.216;2022-07-04T03:47:21;7.38;;;6.10;;
51634;SDS011;37712;52.980;6.216;2022-07-04T03:49:47;7.90;;;5.80;;
51634;SDS011;37712;52.980;6.216;2022-07-04T03:52:13;7.60;;;6.50;;
51634;SDS011;37712;52.980;6.216;2022-07-04T03:54:39;9.50;;;6.32;;
51634;SDS011;37712;52.980;6.216;2022-07-04T03:57:05;7.20;;;6.50;;
51634;SDS011;37712;52.980;6.216;2022-07-04T03:59:31;7.03;;;6.32;;
51634;SDS011;37712;52.980;6.216;2022-07-04T04:01:56;9.40;;;6.75;;
51634;SDS011;37712;52.980;6.216;2022-07-04T04:04:22;9.40;;;6.60;;
51634;SDS011;37712;52.980;6.216;2022-07-04T04:07:06;8.98;;;6.53;;
51634;SDS011;37712;52.980;6.216;2022-07-04T04:09:32;9.02;;;6.90;;
51634;SDS011;37712;52.980;6.216;2022-07-04T04:11:58;8.68;;;6.90;;
51634;SDS011;37712;52.980;6.216;2022-07-04T04:14:24;9.50;;;7.28;;
51634;SDS011;37712;52.980;6.216;2022-07-04T04:16:49;12.90;;;7.97;;
51634;SDS011;37712;52.980;6.216;2022-07-04T04:19:15;8.00;;;7.20;;
51634;SDS011;37712;52.980;6.216;2022-07-04T04:21:41;9.60;;;7.40;;
51634;SDS011;37712;52.980;6.216;2022-07-04T04:24:07;9.00;;;7.50;;
51634;SDS011;37712;52.980;6.216;2022-07-04T04:26:33;7.88;;;7.07;;
51634;SDS011;37712;52.980;6.216;2022-07-04T04:28:59;8.93;;;8.02;;
51634;SDS011;37712;52.980;6.216;2022-07-04T04:31:25;8.32;;;7.35;;
51634;SDS011;37712;52.980;6.216;2022-07-04T04:33:51;8.50;;;7.32;;
51634;SDS011;37712;52.980;6.216;2022-07-04T04:36:17;9.38;;;7.78;;
51634;SDS011;37712;52.980;6.216;2022-07-04T04:38:43;9.55;;;7.93;;
51634;SDS011;37712;52.980;6.216;2022-07-04T04:41:08;8.77;;;7.72;;
51634;SDS011;37712;52.980;6.216;2022-07-04T04:43:34;10.05;;;8.02;;
51634;SDS011;37712;52.980;6.216;2022-07-04T04:46:00;11.13;;;7.93;;
51634;SDS011;37712;52.980;6.216;2022-07-04T04:48:26;9.40;;;8.15;;
51634;SDS011;37712;52.980;6.216;2022-07-04T04:50:51;9.63;;;8.65;;
51634;SDS011;37712;52.980;6.216;2022-07-04T04:53:17;9.23;;;8.30;;
51634;SDS011;37712;52.980;6.216;2022-07-04T04:55:43;9.55;;;8.18;;
51634;SDS011;37712;52.980;6.216;2022-07-04T04:58:08;11.02;;;8.38;;
51634;SDS011;37712;52.980;6.216;2022-07-04T05:00:34;13.32;;;9.05;;
51634;SDS011;37712;52.980;6.216;2022-07-04T05:03:00;12.30;;;8.90;;
51634;SDS011;37712;52.980;6.216;2022-07-04T05:05:25;10.18;;;8.60;;
51634;SDS011;37712;52.980;6.216;2022-07-04T05:07:51;10.55;;;8.60;;
51634;SDS011;37712;52.980;6.216;2022-07-04T05:10:17;10.77;;;8.80;;
51634;SDS011;37712;52.980;6.216;2022-07-04T05:12:43;12.00;;;9.00;;
51634;SDS011;37712;52.980;6.216;2022-07-04T05:15:09;11.25;;;8.93;;
51634;SDS011;37712;52.980;6.216;2022-07-04T05:17:35;11.32;;;8.70;;
51634;SDS011;37712;52.980;6.216;2022-07-04T05:20:01;11.75;;;8.75;;
51634;SDS011;37712;52.980;6.216;2022-07-04T05:22:27;12.32;;;8.73;;
51634;SDS011;37712;52.980;6.216;2022-07-04T05:24:52;10.70;;;8.65;;
51634;SDS011;37712;52.980;6.216;2022-07-04T05:27:18;13.07;;;8.77;;
51634;SDS011;37712;52.980;6.216;2022-07-04T05:29:44;11.48;;;8.60;;
51634;SDS011;37712;52.980;6.216;2022-07-04T05:32:09;10.07;;;8.43;;
51634;SDS011;37712;52.980;6.216;2022-07-04T05:34:35;10.15;;;8.48;;
51634;SDS011;37712;52.980;6.216;2022-07-04T05:37:02;11.77;;;8.80;;
51634;SDS011;37712;52.980;6.216;2022-07-04T05:39:28;11.55;;;8.30;;
51634;SDS011;37712;52.980;6.216;2022-07-04T05:41:54;12.48;;;9.00;;
51634;SDS011;37712;52.980;6.216;2022-07-04T05:44:20;10.93;;;8.30;;
51634;SDS011;37712;52.980;6.216;2022-07-04T05:46:46;9.90;;;8.20;;
51634;SDS011;37712;52.980;6.216;2022-07-04T05:49:12;12.07;;;8.55;;
51634;SDS011;37712;52.980;6.216;2022-07-04T05:51:37;11.23;;;8.32;;
51634;SDS011;37712;52.980;6.216;2022-07-04T05:54:03;13.45;;;8.40;;
51634;SDS011;37712;52.980;6.216;2022-07-04T05:56:29;10.00;;;7.90;;
51634;SDS011;37712;52.980;6.216;2022-07-04T05:58:55;9.93;;;7.70;;
51634;SDS011;37712;52.980;6.216;2022-07-04T06:01:21;14.18;;;7.55;;
51634;SDS011;37712;52.980;6.216;2022-07-04T06:03:47;9.85;;;8.00;;
51634;SDS011;37712;52.980;6.216;2022-07-04T06:06:12;11.77;;;8.30;;
51634;SDS011;37712;52.980;6.216;2022-07-04T06:08:38;15.57;;;8.00;;
51634;SDS011;37712;52.980;6.216;2022-07-04T06:11:04;12.05;;;7.57;;
51634;SDS011;37712;52.980;6.216;2022-07-04T06:13:29;13.73;;;7.78;;
51634;SDS011;37712;52.980;6.216;2022-07-04T06:15:55;12.40;;;7.85;;
51634;SDS011;37712;52.980;6.216;2022-07-04T06:18:21;11.30;;;7.25;;
51634;SDS011;37712;52.980;6.216;2022-07-04T06:20:47;13.63;;;8.20;;
51634;SDS011;37712;52.980;6.216;2022-07-04T06:23:12;10.82;;;7.65;;
51634;SDS011;37712;52.980;6.216;2022-07-04T06:25:38;12.85;;;7.45;;
51634;SDS011;37712;52.980;6.216;2022-07-04T06:28:04;13.20;;;7.78;;
51634;SDS011;37712;52.980;6.216;2022-07-04T06:30:29;9.80;;;7.20;;
51634;SDS011;37712;52.980;6.216;2022-07-04T06:32:56;10.70;;;7.47;;
51634;SDS011;37712;52.980;6.216;2022-07-04T06:35:23;14.90;;;7.43;;
51634;SDS011;37712;52.980;6.216;2022-07-04T06:38:09;11.05;;;7.32;;
51634;SDS011;37712;52.980;6.216;2022-07-04T06:40:37;13.82;;;7.93;;
51634;SDS011;37712;52.980;6.216;2022-07-04T06:43:03;13.32;;;8.02;;
51634;SDS011;37712;52.980;6.216;2022-07-04T06:45:29;13.32;;;7.50;;
51634;SDS011;37712;52.980;6.216;2022-07-04T06:47:55;13.20;;;7.97;;
51634;SDS011;37712;52.980;6.216;2022-07-04T06:50:21;9.18;;;7.82;;
51634;SDS011;37712;52.980;6.216;2022-07-04T06:52:47;13.68;;;7.90;;
51634;SDS011;37712;52.980;6.216;2022-07-04T06:55:13;10.35;;;7.45;;
51634;SDS011;37712;52.980;6.216;2022-07-04T06:57:39;13.50;;;7.93;;
51634;SDS011;37712;52.980;6.216;2022-07-04T07:00:05;11.65;;;7.20;;
51634;SDS011;37712;52.980;6.216;2022-07-04T07:02:36;13.75;;;7.07;;
51634;SDS011;37712;52.980;6.216;2022-07-04T07:05:03;12.70;;;7.35;;
51634;SDS011;37712;52.980;6.216;2022-07-04T07:07:29;14.18;;;9.43;;
51634;SDS011;37712;52.980;6.216;2022-07-04T07:09:55;10.55;;;7.25;;
51634;SDS011;37712;52.980;6.216;2022-07-04T07:12:21;15.52;;;8.25;;
51634;SDS011;37712;52.980;6.216;2022-07-04T07:14:51;18.42;;;10.23;;
51634;SDS011;37712;52.980;6.216;2022-07-04T07:19:42;16.73;;;12.30;;
51634;SDS011;37712;52.980;6.216;2022-07-04T07:22:09;20.67;;;13.52;;
51634;SDS011;37712;52.980;6.216;2022-07-04T07:24:35;28.27;;;24.08;;
51634;SDS011;37712;52.980;6.216;2022-07-04T07:27:01;13.40;;;7.57;;
51634;SDS011;37712;52.980;6.216;2022-07-04T07:29:27;13.23;;;7.60;;
51634;SDS011;37712;52.980;6.216;2022-07-04T07:31:53;10.80;;;6.32;;
51634;SDS011;37712;52.980;6.216;2022-07-04T07:34:19;9.88;;;5.38;;
51634;SDS011;37712;52.980;6.216;2022-07-04T07:36:44;11.43;;;5.50;;
51634;SDS011;37712;52.980;6.216;2022-07-04T07:39:10;12.13;;;6.43;;
51634;SDS011;37712;52.980;6.216;2022-07-04T07:41:36;12.85;;;5.75;;
51634;SDS011;37712;52.980;6.216;2022-07-04T07:44:02;10.13;;;4.32;;
51634;SDS011;37712;52.980;6.216;2022-07-04T07:46:27;10.50;;;4.95;;
51634;SDS011;37712;52.980;6.216;2022-07-04T07:48:53;9.45;;;7.63;;
51634;SDS011;37712;52.980;6.216;2022-07-04T07:51:19;8.15;;;4.28;;
51634;SDS011;37712;52.980;6.216;2022-07-04T07:53:45;8.40;;;3.38;;
51634;SDS011;37712;52.980;6.216;2022-07-04T07:56:10;8.80;;;4.78;;
51634;SDS011;37712;52.980;6.216;2022-07-04T07:58:36;7.32;;;3.38;;
51634;SDS011;37712;52.980;6.216;2022-07-04T08:01:02;7.97;;;3.08;;
51634;SDS011;37712;52.980;6.216;2022-07-04T08:03:28;6.22;;;2.83;;
51634;SDS011;37712;52.980;6.216;2022-07-04T08:06:13;13.90;;;12.48;;
51634;SDS011;37712;52.980;6.216;2022-07-04T08:08:39;5.72;;;2.53;;
51634;SDS011;37712;52.980;6.216;2022-07-04T08:11:06;7.38;;;2.47;;
51634;SDS011;37712;52.980;6.216;2022-07-04T08:13:32;6.45;;;2.53;;
51634;SDS011;37712;52.980;6.216;2022-07-04T08:15:57;4.00;;;2.10;;
51634;SDS011;37712;52.980;6.216;2022-07-04T08:18:23;4.93;;;2.50;;
51634;SDS011;37712;52.980;6.216;2022-07-04T08:20:49;5.15;;;2.20;;
51634;SDS011;37712;52.980;6.216;2022-07-04T08:23:15;6.25;;;2.10;;
51634;SDS011;37712;52.980;6.216;2022-07-04T08:25:41;4.47;;;2.10;;
51634;SDS011;37712;52.980;6.216;2022-07-04T08:28:07;5.70;;;1.90;;
51634;SDS011;37712;52.980;6.216;2022-07-04T08:30:33;6.93;;;1.90;;
51634;SDS011;37712;52.980;6.216;2022-07-04T08:32:59;5.90;;;2.28;;
51634;SDS011;37712;52.980;6.216;2022-07-04T08:35:25;5.82;;;1.92;;
51634;SDS011;37712;52.980;6.216;2022-07-04T08:37:51;3.25;;;2.00;;
51634;SDS011;37712;52.980;6.216;2022-07-04T08:40:25;3.60;;;1.70;;
51634;SDS011;37712;52.980;6.216;2022-07-04T08:42:52;4.68;;;2.55;;
51634;SDS011;37712;52.980;6.216;2022-07-04T08:45:21;3.65;;;1.92;;
51634;SDS011;37712;52.980;6.216;2022-07-04T08:47:52;4.22;;;1.98;;
51634;SDS011;37712;52.980;6.216;2022-07-04T08:50:31;4.80;;;2.08;;
51634;SDS011;37712;52.980;6.216;2022-07-04T08:53:02;5.18;;;2.08;;
51634;SDS011;37712;52.980;6.216;2022-07-04T08:55:31;3.55;;;1.90;;
51634;SDS011;37712;52.980;6.216;2022-07-04T08:58:16;4.70;;;2.05;;
51634;SDS011;37712;52.980;6.216;2022-07-04T09:00:55;3.92;;;2.22;;
51634;SDS011;37712;52.980;6.216;2022-07-04T09:03:23;3.58;;;1.90;;
51634;SDS011;37712;52.980;6.216;2022-07-04T09:05:49;5.00;;;2.13;;
51634;SDS011;37712;52.980;6.216;2022-07-04T09:08:16;3.65;;;1.90;;
51634;SDS011;37712;52.980;6.216;2022-07-04T09:10:41;3.28;;;1.90;;
51634;SDS011;37712;52.980;6.216;2022-07-04T09:13:08;4.75;;;1.77;;
51634;SDS011;37712;52.980;6.216;2022-07-04T09:15:35;2.92;;;1.88;;
51634;SDS011;37712;52.980;6.216;2022-07-04T09:18:02;3.65;;;1.70;;
51634;SDS011;37712;52.980;6.216;2022-07-04T09:20:29;4.65;;;2.00;;
51634;SDS011;37712;52.980;6.216;2022-07-04T09:22:57;5.90;;;2.03;;
51634;SDS011;37712;52.980;6.216;2022-07-04T09:25:23;3.53;;;1.80;;
51634;SDS011;37712;52.980;6.216;2022-07-04T09:27:54;4.47;;;1.90;;
51634;SDS011;37712;52.980;6.216;2022-07-04T09:30:22;4.07;;;2.00;;
51634;SDS011;37712;52.980;6.216;2022-07-04T09:32:52;4.20;;;2.17;;
51634;SDS011;37712;52.980;6.216;2022-07-04T09:35:25;2.88;;;1.88;;
51634;SDS011;37712;52.980;6.216;2022-07-04T09:37:52;3.85;;;1.83;;
51634;SDS011;37712;52.980;6.216;2022-07-04T09:40:26;2.95;;;1.63;;
51634;SDS011;37712;52.980;6.216;2022-07-04T09:42:55;3.70;;;1.80;;
51634;SDS011;37712;52.980;6.216;2022-07-04T09:45:22;3.20;;;1.83;;
51634;SDS011;37712;52.980;6.216;2022-07-04T09:47:56;4.45;;;2.03;;
51634;SDS011;37712;52.980;6.216;2022-07-04T09:50:23;6.10;;;2.70;;
51634;SDS011;37712;52.980;6.216;2022-07-04T09:57:48;3.35;;;2.10;;
51634;SDS011;37712;52.980;6.216;2022-07-04T10:00:24;4.80;;;2.72;;
51634;SDS011;37712;52.980;6.216;2022-07-04T10:02:52;4.05;;;2.20;;
51634;SDS011;37712;52.980;6.216;2022-07-04T10:05:23;4.30;;;2.25;;
51634;SDS011;37712;52.980;6.216;2022-07-04T10:07:51;5.30;;;2.13;;
51634;SDS011;37712;52.980;6.216;2022-07-04T10:13:07;3.95;;;1.90;;
51634;SDS011;37712;52.980;6.216;2022-07-04T10:15:35;3.80;;;1.70;;
51634;SDS011;37712;52.980;6.216;2022-07-04T10:18:06;3.60;;;1.77;;
51634;SDS011;37712;52.980;6.216;2022-07-04T10:20:33;2.78;;;1.60;;
51634;SDS011;37712;52.980;6.216;2022-07-04T10:23:00;4.38;;;1.70;;
51634;SDS011;37712;52.980;6.216;2022-07-04T10:25:26;4.90;;;2.13;;
51634;SDS011;37712;52.980;6.216;2022-07-04T10:27:51;3.95;;;2.08;;
51634;SDS011;37712;52.980;6.216;2022-07-04T10:30:28;5.93;;;1.90;;
51634;SDS011;37712;52.980;6.216;2022-07-04T10:32:56;3.38;;;1.77;;
51634;SDS011;37712;52.980;6.216;2022-07-04T10:38:13;4.57;;;1.77;;
51634;SDS011;37712;52.980;6.216;2022-07-04T10:46:43;3.10;;;1.65;;
51634;SDS011;37712;52.980;6.216;2022-07-04T10:56:41;3.28;;;1.90;;
51634;SDS011;37712;52.980;6.216;2022-07-04T10:59:11;3.95;;;2.20;;
51634;SDS011;37712;52.980;6.216;2022-07-04T11:01:52;3.00;;;1.50;;
51634;SDS011;37712;52.980;6.216;2022-07-04T11:04:46;4.65;;;1.40;;
51634;SDS011;37712;52.980;6.216;2022-07-04T11:07:16;2.70;;;1.40;;
51634;SDS011;37712;52.980;6.216;2022-07-04T11:09:44;2.25;;;1.30;;
51634;SDS011;37712;52.980;6.216;2022-07-04T11:12:10;3.85;;;1.33;;
51634;SDS011;37712;52.980;6.216;2022-07-04T11:14:45;3.13;;;1.50;;
51634;SDS011;37712;52.980;6.216;2022-07-04T11:17:19;5.93;;;1.67;;
51634;SDS011;37712;52.980;6.216;2022-07-04T11:22:23;3.05;;;1.52;;
51634;SDS011;37712;52.980;6.216;2022-07-04T11:24:49;6.22;;;1.55;;
51634;SDS011;37712;52.980;6.216;2022-07-04T11:27:15;2.75;;;1.40;;
